createdAt,value
2022-11-01T00:00:02.554Z,100454.47
2022-11-01T00:00:44.272Z,100452.44
2022-11-01T00:01:16.521Z,100457.87
2022-11-01T00:01:49.633Z,100454.84
2022-11-01T00:02:21.580Z,100454.22
2022-11-01T00:02:53.436Z,100458.88
2022-11-01T00:03:25.293Z,100451.00
2022-11-01T00:03:57.265Z,100447.97
2022-11-01T00:04:29.658Z,100456.03
2022-11-01T00:05:01.633Z,100447.94
2022-11-01T00:05:33.468Z,100454.72
2022-11-01T00:06:05.717Z,100452.91
2022-11-01T00:06:38.128Z,100446.09
2022-11-01T00:07:10.012Z,100449.31
2022-11-01T00:07:41.881Z,100450.13
2022-11-01T00:08:13.700Z,100445.50
2022-11-01T00:08:45.605Z,100451.13
2022-11-01T00:09:18.328Z,100442.72
2022-11-01T00:09:50.157Z,100446.94
2022-11-01T00:10:22.111Z,100444.91
2022-11-01T00:11:01.097Z,100450.75
2022-11-01T00:11:33.056Z,100446.53
2022-11-01T00:12:05.667Z,100454.81
2022-11-01T00:12:37.530Z,100453.41
2022-11-01T00:13:09.466Z,100456.22
2022-11-01T00:13:42.115Z,100464.66
2022-11-01T00:14:15.970Z,100454.41
2022-11-01T00:14:48.189Z,100461.03
2022-11-01T00:15:20.039Z,100452.19
2022-11-01T00:15:51.871Z,100452.59
2022-11-01T00:16:23.853Z,100453.75
2022-11-01T00:16:55.804Z,100449.12
2022-11-01T00:17:27.959Z,100458.81
2022-11-01T00:17:59.795Z,100458.03
2022-11-01T00:18:31.702Z,100450.16
2022-11-01T00:19:03.530Z,100447.09
2022-11-01T00:19:35.381Z,100446.53
2022-11-01T00:20:07.551Z,100452.38
2022-11-01T00:20:39.366Z,100443.28
2022-11-01T00:21:12.083Z,100451.72
2022-11-01T00:21:43.994Z,100450.28
2022-11-01T00:22:15.881Z,100447.94
2022-11-01T00:22:48.056Z,100444.34
2022-11-01T00:23:19.944Z,100448.78
2022-11-01T00:23:51.857Z,100449.97
2022-11-01T00:24:23.761Z,100449.00
2022-11-01T00:24:55.590Z,100442.34
2022-11-01T00:25:27.502Z,100449.38
2022-11-01T00:26:00.736Z,100448.56
2022-11-01T00:26:32.751Z,100450.59
2022-11-01T00:27:04.635Z,100449.38
2022-11-01T00:27:36.507Z,100443.16
2022-11-01T00:28:08.945Z,100445.31
2022-11-01T00:28:40.784Z,100440.50
2022-11-01T00:29:13.142Z,100445.56
2022-11-01T00:29:44.954Z,100443.78
2022-11-01T00:30:16.907Z,100447.37
2022-11-01T00:30:52.969Z,100440.34
2022-11-01T00:31:25.106Z,100437.94
2022-11-01T00:31:57.107Z,100445.22
2022-11-01T00:32:28.948Z,100443.97
2022-11-01T00:33:00.803Z,100446.78
2022-11-01T00:33:32.908Z,100442.56
2022-11-01T00:34:06.180Z,100443.53
2022-11-01T00:34:38.025Z,100441.94
2022-11-01T00:35:09.881Z,100441.94
2022-11-01T00:35:41.747Z,100445.19
2022-11-01T00:36:13.841Z,100441.94
2022-11-01T00:36:45.679Z,100443.31
2022-11-01T00:37:17.561Z,100440.53
2022-11-01T00:37:49.407Z,100441.34
2022-11-01T00:38:21.269Z,100439.69
2022-11-01T00:38:53.521Z,100435.06
2022-11-01T00:39:30.375Z,100428.22
2022-11-01T00:40:03.446Z,100434.25
2022-11-01T00:40:35.294Z,100437.88
2022-11-01T00:41:07.409Z,100436.28
2022-11-01T00:41:39.267Z,100432.66
2022-11-01T00:42:11.102Z,100432.06
2022-11-01T00:42:43.031Z,100430.03
2022-11-01T00:43:15.019Z,100435.31
2022-11-01T00:43:47.031Z,100431.47
2022-11-01T00:44:19.216Z,100436.69
2022-11-01T00:44:51.053Z,100440.28
2022-11-01T00:45:22.886Z,100426.56
2022-11-01T00:45:54.776Z,100432.16
2022-11-01T00:46:26.612Z,100429.97
2022-11-01T00:46:58.921Z,100426.19
2022-11-01T00:47:30.971Z,100433.00
2022-11-01T00:48:03.114Z,100431.00
2022-11-01T00:48:35.276Z,100433.03
2022-11-01T00:49:07.189Z,100432.00
2022-11-01T00:49:39.295Z,100426.16
2022-11-01T00:50:11.091Z,100428.19
2022-11-01T00:50:42.997Z,100430.22
2022-11-01T00:51:14.801Z,100427.22
2022-11-01T00:51:46.616Z,100429.47
2022-11-01T00:52:18.447Z,100434.50
2022-11-01T00:52:50.338Z,100431.88
2022-11-01T00:53:22.238Z,100433.03
2022-11-01T00:53:54.065Z,100428.25
2022-11-01T00:54:25.913Z,100433.84
2022-11-01T00:54:58.044Z,100424.22
2022-11-01T00:55:29.950Z,100425.81
2022-11-01T00:56:04.158Z,100431.84
2022-11-01T00:56:36.074Z,100428.62
2022-11-01T00:57:07.960Z,100427.44
2022-11-01T00:57:39.760Z,100431.47
2022-11-01T00:58:11.647Z,100429.47
2022-11-01T00:58:43.489Z,100434.69
2022-11-01T00:59:15.317Z,100426.63
2022-11-01T00:59:47.235Z,100425.38
2022-11-01T01:00:19.671Z,100429.81
2022-11-01T01:00:51.570Z,100428.25
2022-11-01T01:01:23.577Z,100430.22
2022-11-01T01:01:55.629Z,100433.44
2022-11-01T01:02:28.138Z,100427.44
2022-11-01T01:03:00.406Z,100431.88
2022-11-01T01:03:32.736Z,100426.25
2022-11-01T01:04:04.741Z,100434.09
2022-11-01T01:04:41.543Z,100431.50
2022-11-01T01:05:13.630Z,100426.28
2022-11-01T01:05:48.456Z,100428.69
2022-11-01T01:06:20.570Z,100427.50
2022-11-01T01:06:52.441Z,100423.06
2022-11-01T01:07:24.294Z,100426.09
2022-11-01T01:07:56.416Z,100431.69
2022-11-01T01:08:28.594Z,100431.09
2022-11-01T01:09:01.076Z,100426.47
2022-11-01T01:09:33.082Z,100429.28
2022-11-01T01:10:06.376Z,100431.31
2022-11-01T01:10:38.195Z,100427.88
2022-11-01T01:11:10.328Z,100431.50
2022-11-01T01:11:42.181Z,100432.75
2022-11-01T01:12:14.027Z,100437.97
2022-11-01T01:12:45.869Z,100437.16
2022-11-01T01:13:18.626Z,100437.56
2022-11-01T01:13:50.457Z,100431.94
2022-11-01T01:14:22.763Z,100441.41
2022-11-01T01:14:54.595Z,100435.53
2022-11-01T01:15:26.592Z,100431.91
2022-11-01T01:15:58.415Z,100432.31
2022-11-01T01:16:30.728Z,100423.09
2022-11-01T01:17:02.848Z,100424.69
2022-11-01T01:17:34.671Z,100429.91
2022-11-01T01:18:07.125Z,100419.44
2022-11-01T01:18:39.246Z,100419.81
2022-11-01T01:19:11.060Z,100410.13
2022-11-01T01:19:43.004Z,100410.16
2022-11-01T01:20:15.142Z,100411.38
2022-11-01T01:20:46.982Z,100415.03
2022-11-01T01:21:19.612Z,100416.63
2022-11-01T01:21:51.752Z,100408.56
2022-11-01T01:22:23.612Z,100404.94
2022-11-01T01:22:55.766Z,100400.47
2022-11-01T01:23:27.573Z,100396.25
2022-11-01T01:23:59.423Z,100408.53
2022-11-01T01:24:32.440Z,100399.91
2022-11-01T01:25:04.677Z,100401.88
2022-11-01T01:25:42.603Z,100405.72
2022-11-01T01:26:14.447Z,100403.63
2022-11-01T01:26:46.350Z,100401.25
2022-11-01T01:27:18.518Z,100401.50
2022-11-01T01:27:50.605Z,100403.28
2022-11-01T01:28:22.756Z,100397.66
2022-11-01T01:28:55.057Z,100395.84
2022-11-01T01:29:26.919Z,100400.06
2022-11-01T01:29:58.755Z,100397.69
2022-11-01T01:30:30.576Z,100394.47
2022-11-01T01:31:09.422Z,100395.91
2022-11-01T01:31:41.267Z,100394.25
2022-11-01T01:32:17.978Z,100393.66
2022-11-01T01:32:50.127Z,100390.06
2022-11-01T01:33:21.978Z,100388.00
2022-11-01T01:33:53.979Z,100386.22
2022-11-01T01:34:25.826Z,100390.41
2022-11-01T01:34:57.650Z,100382.94
2022-11-01T01:35:29.531Z,100388.78
2022-11-01T01:36:05.138Z,100382.97
2022-11-01T01:36:37.081Z,100395.91
2022-11-01T01:37:10.258Z,100386.84
2022-11-01T01:37:42.093Z,100392.87
2022-11-01T01:38:14.224Z,100385.41
2022-11-01T01:38:46.129Z,100386.19
2022-11-01T01:39:17.942Z,100388.41
2022-11-01T01:39:49.791Z,100383.16
2022-11-01T01:40:21.715Z,100380.34
2022-11-01T01:40:53.563Z,100377.50
2022-11-01T01:41:43.947Z,100375.28
2022-11-01T01:42:28.459Z,100375.06
2022-11-01T01:43:00.487Z,100376.28
2022-11-01T01:43:43.902Z,100385.13
2022-11-01T01:44:47.447Z,100377.09
2022-11-01T01:45:35.806Z,100379.13
2022-11-01T01:46:07.659Z,100377.09
2022-11-01T01:46:39.512Z,100374.72
2022-11-01T01:47:15.560Z,100372.69
2022-11-01T01:47:51.285Z,100373.91
2022-11-01T01:48:26.431Z,100378.31
2022-11-01T01:48:59.803Z,100381.94
2022-11-01T01:49:31.684Z,100380.97
2022-11-01T01:50:19.864Z,100383.97
2022-11-01T01:51:03.061Z,100390.25
2022-11-01T01:51:34.911Z,100380.78
2022-11-01T01:52:07.069Z,100389.63
2022-11-01T01:52:49.788Z,100388.22
2022-11-01T01:53:21.611Z,100388.78
2022-11-01T01:53:56.289Z,100388.00
2022-11-01T01:54:28.788Z,100387.56
2022-11-01T01:55:04.792Z,100390.75
2022-11-01T01:55:36.613Z,100386.75
2022-11-01T01:56:16.360Z,100388.97
2022-11-01T01:56:49.338Z,100387.56
2022-11-01T01:57:21.183Z,100381.53
2022-11-01T01:57:57.088Z,100375.91
2022-11-01T01:58:37.813Z,100375.47
2022-11-01T01:59:10.436Z,100377.09
2022-11-01T01:59:42.734Z,100378.53
2022-11-01T02:00:15.857Z,100387.56
2022-11-01T02:00:48.582Z,100384.12
2022-11-01T02:01:20.839Z,100382.13
2022-11-01T02:01:52.859Z,100389.13
2022-11-01T02:02:25.315Z,100379.66
2022-11-01T02:02:57.228Z,100387.91
2022-11-01T02:03:32.209Z,100387.53
2022-11-01T02:04:07.211Z,100384.34
2022-11-01T02:04:49.386Z,100385.34
2022-11-01T02:05:27.152Z,100386.19
2022-11-01T02:06:06.418Z,100383.78
2022-11-01T02:06:39.482Z,100388.59
2022-11-01T02:07:12.256Z,100386.41
2022-11-01T02:07:45.732Z,100388.81
2022-11-01T02:08:26.661Z,100383.59
2022-11-01T02:09:01.443Z,100388.41
2022-11-01T02:09:35.127Z,100384.81
2022-11-01T02:10:08.352Z,100386.41
2022-11-01T02:10:40.949Z,100378.16
2022-11-01T02:11:14.741Z,100384.81
2022-11-01T02:11:46.960Z,100382.41
2022-11-01T02:12:19.040Z,100380.41
2022-11-01T02:12:51.342Z,100384.81
2022-11-01T02:13:23.223Z,100373.94
2022-11-01T02:13:55.687Z,100377.94
2022-11-01T02:14:27.936Z,100377.53
2022-11-01T02:15:00.222Z,100370.69
2022-11-01T02:15:59.930Z,100367.47
2022-11-01T02:16:37.325Z,100371.28
2022-11-01T02:17:28.289Z,100370.31
2022-11-01T02:18:41.742Z,100379.19
2022-11-01T02:19:22.329Z,100374.97
2022-11-01T02:20:08.977Z,100381.62
2022-11-01T02:20:53.498Z,100377.97
2022-11-01T02:21:51.397Z,100372.72
2022-11-01T02:22:41.716Z,100380.78
2022-11-01T02:23:46.262Z,100376.75
2022-11-01T02:24:32.787Z,100381.22
2022-11-01T02:25:10.941Z,100372.72
2022-11-01T02:26:09.187Z,100373.94
2022-11-01T02:27:12.363Z,100377.94
2022-11-01T02:28:22.259Z,100371.03
2022-11-01T02:29:05.730Z,100371.03
2022-11-01T02:29:43.747Z,100369.25
2022-11-01T02:30:23.621Z,100372.28
2022-11-01T02:31:18.366Z,100366.69
2022-11-01T02:32:13.625Z,100366.72
2022-11-01T02:32:52.123Z,100373.91
2022-11-01T02:33:34.716Z,100376.97
2022-11-01T02:34:18.948Z,100373.75
2022-11-01T02:35:05.863Z,100379.56
2022-11-01T02:35:58.223Z,100372.91
2022-11-01T02:36:36.815Z,100374.75
2022-11-01T02:37:15.476Z,100374.75
2022-11-01T02:37:55.465Z,100371.12
2022-11-01T02:38:42.186Z,100377.59
2022-11-01T02:39:20.142Z,100376.97
2022-11-01T02:39:58.291Z,100369.94
2022-11-01T02:40:55.613Z,100368.53
2022-11-01T02:41:38.204Z,100370.31
2022-11-01T02:42:15.435Z,100376.78
2022-11-01T02:42:52.849Z,100374.38
2022-11-01T02:43:33.075Z,100377.19
2022-11-01T02:44:12.090Z,100373.56
2022-11-01T02:44:53.158Z,100369.13
2022-11-01T02:45:39.851Z,100377.97
2022-11-01T02:46:30.550Z,100371.56
2022-11-01T02:47:04.112Z,100373.56
2022-11-01T02:47:38.479Z,100370.53
2022-11-01T02:48:10.721Z,100368.75
2022-11-01T02:48:43.030Z,100365.53
2022-11-01T02:49:19.381Z,100364.53
2022-11-01T02:49:54.868Z,100365.53
2022-11-01T02:50:30.519Z,100364.72
2022-11-01T02:51:02.487Z,100357.69
2022-11-01T02:51:36.970Z,100351.03
2022-11-01T02:52:13.453Z,100357.09
2022-11-01T02:52:46.384Z,100352.25
2022-11-01T02:53:18.280Z,100356.66
2022-11-01T02:53:50.159Z,100345.37
2022-11-01T02:54:27.759Z,100345.59
2022-11-01T02:55:03.510Z,100346.22
2022-11-01T02:55:36.202Z,100354.44
2022-11-01T02:56:10.776Z,100359.44
2022-11-01T02:56:43.011Z,100348.56
2022-11-01T02:57:17.777Z,100352.00
2022-11-01T02:57:49.647Z,100351.81
2022-11-01T02:58:28.261Z,100350.00
2022-11-01T02:59:01.142Z,100347.16
2022-11-01T02:59:42.981Z,100346.16
2022-11-01T03:00:33.761Z,100347.00
2022-11-01T03:01:15.297Z,100344.16
2022-11-01T03:02:07.908Z,100340.12
2022-11-01T03:02:42.636Z,100341.34
2022-11-01T03:03:17.225Z,100346.16
2022-11-01T03:03:52.176Z,100348.41
2022-11-01T03:04:24.186Z,100342.16
2022-11-01T03:04:56.034Z,100352.63
2022-11-01T03:05:40.999Z,100350.41
2022-11-01T03:06:21.403Z,100357.66
2022-11-01T03:06:59.264Z,100358.47
2022-11-01T03:07:31.157Z,100358.28
2022-11-01T03:08:17.009Z,100359.50
2022-11-01T03:09:07.592Z,100352.84
2022-11-01T03:09:41.071Z,100358.91
2022-11-01T03:10:13.704Z,100360.66
2022-11-01T03:10:52.061Z,100355.03
2022-11-01T03:11:31.528Z,100350.41
2022-11-01T03:12:14.017Z,100361.69
2022-11-01T03:13:05.786Z,100359.09
2022-11-01T03:14:06.754Z,100360.84
2022-11-01T03:15:01.091Z,100357.06
2022-11-01T03:15:41.633Z,100357.19
2022-11-01T03:16:35.399Z,100361.22
2022-11-01T03:17:24.108Z,100365.44
2022-11-01T03:18:06.623Z,100362.47
2022-11-01T03:18:59.790Z,100356.22
2022-11-01T03:19:59.853Z,100363.06
2022-11-01T03:20:50.207Z,100366.22
2022-11-01T03:21:26.745Z,100364.59
2022-11-01T03:22:18.889Z,100359.81
2022-11-01T03:22:56.507Z,100363.44
2022-11-01T03:23:55.635Z,100363.88
2022-11-01T03:24:36.405Z,100371.31
2022-11-01T03:25:34.262Z,100374.12
2022-11-01T03:26:12.031Z,100372.69
2022-11-01T03:26:50.218Z,100369.03
2022-11-01T03:27:32.703Z,100363.22
2022-11-01T03:28:21.977Z,100361.41
2022-11-01T03:28:59.339Z,100366.66
2022-11-01T03:29:35.012Z,100361.84
2022-11-01T03:30:10.678Z,100360.66
2022-11-01T03:30:47.250Z,100362.06
2022-11-01T03:31:30.322Z,100362.28
2022-11-01T03:32:03.995Z,100357.81
2022-11-01T03:32:43.913Z,100361.63
2022-11-01T03:33:16.942Z,100361.66
2022-11-01T03:33:54.137Z,100362.25
2022-11-01T03:34:26.329Z,100363.66
2022-11-01T03:35:01.377Z,100359.81
2022-11-01T03:35:37.862Z,100364.22
2022-11-01T03:36:14.831Z,100362.22
2022-11-01T03:36:52.751Z,100369.03
2022-11-01T03:37:25.301Z,100365.38
2022-11-01T03:38:01.124Z,100355.16
2022-11-01T03:38:37.407Z,100362.63
2022-11-01T03:39:15.342Z,100362.63
2022-11-01T03:39:51.703Z,100370.66
2022-11-01T03:40:25.855Z,100361.56
2022-11-01T03:41:03.421Z,100371.84
2022-11-01T03:41:42.301Z,100367.03
2022-11-01T03:42:20.626Z,100370.69
2022-11-01T03:42:56.077Z,100373.91
2022-11-01T03:43:31.329Z,100357.59
2022-11-01T03:44:04.170Z,100366.84
2022-11-01T03:44:44.127Z,100365.81
2022-11-01T03:45:56.060Z,100370.69
2022-11-01T03:46:28.491Z,100368.87
2022-11-01T03:47:00.456Z,100370.28
2022-11-01T03:47:32.543Z,100359.37
2022-11-01T03:48:05.958Z,100370.66
2022-11-01T03:48:41.568Z,100363.00
2022-11-01T03:49:17.713Z,100362.41
2022-11-01T03:50:12.065Z,100360.59
2022-11-01T03:50:52.090Z,100369.06
2022-11-01T03:51:23.926Z,100363.88
2022-11-01T03:51:55.839Z,100361.41
2022-11-01T03:52:27.982Z,100365.44
2022-11-01T03:53:00.470Z,100362.66
2022-11-01T03:53:32.774Z,100363.25
2022-11-01T03:54:08.432Z,100361.41
2022-11-01T03:54:40.352Z,100358.16
2022-11-01T03:55:19.981Z,100358.97
2022-11-01T03:55:52.571Z,100362.13
2022-11-01T03:56:24.456Z,100362.31
2022-11-01T03:56:56.700Z,100364.53
2022-11-01T03:57:28.809Z,100365.38
2022-11-01T03:58:01.019Z,100366.22
2022-11-01T03:58:44.055Z,100362.94
2022-11-01T03:59:15.900Z,100366.19
2022-11-01T03:59:47.710Z,100360.94
2022-11-01T04:00:21.160Z,100355.34
2022-11-01T04:00:55.870Z,100356.56
2022-11-01T04:01:27.847Z,100354.78
2022-11-01T04:01:59.901Z,100356.34
2022-11-01T04:02:31.880Z,100357.72
2022-11-01T04:03:04.260Z,100359.53
2022-11-01T04:03:36.444Z,100349.47
2022-11-01T04:04:08.272Z,100356.13
2022-11-01T04:04:40.113Z,100353.47
2022-11-01T04:05:12.275Z,100353.44
2022-11-01T04:05:44.096Z,100349.03
2022-11-01T04:06:16.262Z,100350.06
2022-11-01T04:06:48.155Z,100349.66
2022-11-01T04:07:19.971Z,100357.72
2022-11-01T04:07:52.419Z,100358.97
2022-11-01T04:08:24.251Z,100349.88
2022-11-01T04:08:56.427Z,100352.13
2022-11-01T04:09:28.240Z,100350.31
2022-11-01T04:10:00.048Z,100344.88
2022-11-01T04:10:32.622Z,100344.88
2022-11-01T04:11:05.122Z,100346.50
2022-11-01T04:11:37.277Z,100349.72
2022-11-01T04:12:09.124Z,100342.84
2022-11-01T04:12:44.653Z,100345.31
2022-11-01T04:13:16.490Z,100346.50
2022-11-01T04:13:48.359Z,100349.31
2022-11-01T04:14:38.959Z,100345.72
2022-11-01T04:15:30.003Z,100347.69
2022-11-01T04:16:20.482Z,100342.88
2022-11-01T04:17:11.247Z,100341.22
2022-11-01T04:18:01.603Z,100340.84
2022-11-01T04:18:52.058Z,100339.66
2022-11-01T04:19:42.489Z,100335.03
2022-11-01T04:20:32.856Z,100338.00
2022-11-01T04:21:10.576Z,100340.84
2022-11-01T04:21:42.527Z,100334.81
2022-11-01T04:22:14.684Z,100338.06
2022-11-01T04:22:46.554Z,100335.66
2022-11-01T04:23:18.775Z,100331.81
2022-11-01T04:23:50.897Z,100334.03
2022-11-01T04:24:22.806Z,100332.00
2022-11-01T04:24:54.720Z,100331.16
2022-11-01T04:25:26.622Z,100327.56
2022-11-01T04:25:58.493Z,100327.97
2022-11-01T04:26:30.356Z,100325.75
2022-11-01T04:27:02.215Z,100323.56
2022-11-01T04:27:34.384Z,100332.63
2022-11-01T04:28:06.224Z,100329.00
2022-11-01T04:28:38.222Z,100332.06
2022-11-01T04:29:10.136Z,100328.03
2022-11-01T04:29:42.013Z,100324.81
2022-11-01T04:30:13.951Z,100326.41
2022-11-01T04:30:45.810Z,100321.19
2022-11-01T04:31:17.652Z,100322.81
2022-11-01T04:31:49.487Z,100325.63
2022-11-01T04:32:21.315Z,100324.63
2022-11-01T04:32:53.488Z,100319.97
2022-11-01T04:33:25.354Z,100323.03
2022-11-01T04:33:58.451Z,100331.03
2022-11-01T04:34:42.515Z,100327.38
2022-11-01T04:35:14.524Z,100325.59
2022-11-01T04:35:46.791Z,100318.97
2022-11-01T04:36:18.778Z,100321.19
2022-11-01T04:36:50.602Z,100324.78
2022-11-01T04:37:22.436Z,100323.53
2022-11-01T04:37:59.280Z,100316.09
2022-11-01T04:38:31.346Z,100325.16
2022-11-01T04:39:03.258Z,100319.34
2022-11-01T04:39:35.085Z,100320.50
2022-11-01T04:40:07.780Z,100317.47
2022-11-01T04:40:40.770Z,100326.34
2022-11-01T04:41:12.596Z,100327.56
2022-11-01T04:41:44.430Z,100327.56
2022-11-01T04:42:16.277Z,100324.47
2022-11-01T04:42:48.518Z,100327.16
2022-11-01T04:43:22.846Z,100323.16
2022-11-01T04:43:56.630Z,100328.81
2022-11-01T04:44:28.480Z,100330.97
2022-11-01T04:45:00.379Z,100332.22
2022-11-01T04:45:32.218Z,100330.97
2022-11-01T04:46:04.075Z,100333.56
2022-11-01T04:46:35.927Z,100334.78
2022-11-01T04:47:07.766Z,100337.41
2022-11-01T04:47:39.637Z,100332.81
2022-11-01T04:48:13.913Z,100340.88
2022-11-01T04:48:46.201Z,100338.81
2022-11-01T04:49:18.045Z,100331.97
2022-11-01T04:49:49.892Z,100333.78
2022-11-01T04:50:22.182Z,100327.16
2022-11-01T04:50:54.072Z,100339.44
2022-11-01T04:51:26.009Z,100340.22
2022-11-01T04:51:58.212Z,100339.44
2022-11-01T04:52:30.055Z,100332.78
2022-11-01T04:53:02.856Z,100337.62
2022-11-01T04:53:35.770Z,100342.41
2022-11-01T04:54:08.096Z,100338.37
2022-11-01T04:54:39.909Z,100334.00
2022-11-01T04:55:11.739Z,100331.56
2022-11-01T04:55:43.654Z,100332.78
2022-11-01T04:56:15.539Z,100334.56
2022-11-01T04:56:47.386Z,100333.16
2022-11-01T04:57:25.047Z,100337.62
2022-11-01T04:57:57.233Z,100336.00
2022-11-01T04:58:29.243Z,100337.19
2022-11-01T04:59:01.207Z,100329.56
2022-11-01T04:59:33.316Z,100331.38
2022-11-01T05:00:05.762Z,100338.81
2022-11-01T05:00:38.829Z,100337.66
2022-11-01T05:01:11.089Z,100340.44
2022-11-01T05:01:45.255Z,100335.66
2022-11-01T05:02:17.623Z,100331.63
2022-11-01T05:02:50.293Z,100336.44
2022-11-01T05:03:22.149Z,100333.03
2022-11-01T05:03:55.715Z,100336.44
2022-11-01T05:04:27.585Z,100341.66
2022-11-01T05:04:59.731Z,100329.56
2022-11-01T05:05:31.844Z,100340.00
2022-11-01T05:06:03.747Z,100338.81
2022-11-01T05:06:35.611Z,100338.81
2022-11-01T05:07:07.449Z,100331.81
2022-11-01T05:07:39.714Z,100342.09
2022-11-01T05:08:13.192Z,100338.47
2022-11-01T05:08:45.027Z,100339.25
2022-11-01T05:09:16.982Z,100338.47
2022-11-01T05:09:48.818Z,100333.66
2022-11-01T05:10:20.955Z,100337.06
2022-11-01T05:10:54.520Z,100337.69
2022-11-01T05:11:26.425Z,100337.47
2022-11-01T05:11:58.306Z,100345.91
2022-11-01T05:12:30.182Z,100343.72
2022-11-01T05:13:02.968Z,100346.09
2022-11-01T05:13:36.566Z,100345.72
2022-11-01T05:14:08.956Z,100336.09
2022-11-01T05:14:40.769Z,100340.47
2022-11-01T05:15:12.653Z,100338.13
2022-11-01T05:15:59.522Z,100338.28
2022-11-01T05:16:37.792Z,100337.50
2022-11-01T05:17:09.620Z,100334.69
2022-11-01T05:17:41.933Z,100338.47
2022-11-01T05:18:13.791Z,100326.41
2022-11-01T05:18:45.671Z,100333.03
2022-11-01T05:19:17.568Z,100330.62
2022-11-01T05:19:49.431Z,100335.00
2022-11-01T05:20:21.272Z,100332.81
2022-11-01T05:20:53.402Z,100332.41
2022-11-01T05:21:25.224Z,100326.81
2022-11-01T05:21:58.005Z,100337.47
2022-11-01T05:22:29.844Z,100340.09
2022-11-01T05:23:03.414Z,100336.44
2022-11-01T05:23:35.422Z,100330.81
2022-11-01T05:24:07.633Z,100335.25
2022-11-01T05:24:39.564Z,100339.03
2022-11-01T05:25:11.526Z,100336.63
2022-11-01T05:25:43.657Z,100334.78
2022-11-01T05:26:16.028Z,100330.62
2022-11-01T05:26:49.826Z,100338.03
2022-11-01T05:27:21.731Z,100327.78
2022-11-01T05:28:03.698Z,100339.66
2022-11-01T05:28:35.958Z,100334.03
2022-11-01T05:29:09.134Z,100333.22
2022-11-01T05:29:50.356Z,100335.41
2022-11-01T05:30:22.215Z,100332.81
2022-11-01T05:30:54.057Z,100325.19
2022-11-01T05:31:26.287Z,100335.22
2022-11-01T05:31:58.155Z,100334.78
2022-11-01T05:32:30.043Z,100329.16
2022-11-01T05:33:03.550Z,100334.22
2022-11-01T05:33:35.344Z,100328.59
2022-11-01T05:34:07.209Z,100333.22
2022-11-01T05:34:39.049Z,100329.59
2022-11-01T05:35:10.890Z,100330.81
2022-11-01T05:35:42.735Z,100332.63
2022-11-01T05:36:14.601Z,100329.38
2022-11-01T05:36:46.994Z,100328.37
2022-11-01T05:37:18.890Z,100330.41
2022-11-01T05:37:50.718Z,100325.53
2022-11-01T05:38:22.758Z,100329.34
2022-11-01T05:38:58.378Z,100320.97
2022-11-01T05:39:30.256Z,100326.97
2022-11-01T05:40:02.701Z,100322.37
2022-11-01T05:40:34.614Z,100328.81
2022-11-01T05:41:06.634Z,100321.56
2022-11-01T05:41:40.492Z,100324.94
2022-11-01T05:42:12.634Z,100323.94
2022-11-01T05:42:44.494Z,100322.34
2022-11-01T05:43:16.685Z,100320.34
2022-11-01T05:43:48.513Z,100320.75
2022-11-01T05:44:20.367Z,100325.78
2022-11-01T05:44:52.245Z,100330.44
2022-11-01T05:45:24.468Z,100322.59
2022-11-01T05:45:56.329Z,100331.41
2022-11-01T05:46:28.311Z,100337.84
2022-11-01T05:47:04.371Z,100334.97
2022-11-01T05:47:36.701Z,100332.53
2022-11-01T05:48:08.609Z,100332.75
2022-11-01T05:48:41.766Z,100331.94
2022-11-01T05:49:13.670Z,100336.13
2022-11-01T05:49:45.501Z,100332.31
2022-11-01T05:50:17.486Z,100334.75
2022-11-01T05:50:49.351Z,100335.53
2022-11-01T05:51:21.293Z,100338.78
2022-11-01T05:51:53.112Z,100336.56
2022-11-01T05:52:24.946Z,100337.53
2022-11-01T05:53:07.965Z,100336.97
2022-11-01T05:53:39.798Z,100329.94
2022-11-01T05:54:11.639Z,100337.75
2022-11-01T05:54:43.499Z,100329.47
2022-11-01T05:55:15.596Z,100332.72
2022-11-01T05:55:47.652Z,100336.16
2022-11-01T05:56:19.529Z,100330.94
2022-11-01T05:56:51.418Z,100332.37
2022-11-01T05:57:23.217Z,100326.34
2022-11-01T05:57:58.556Z,100324.34
2022-11-01T05:58:31.137Z,100334.56
2022-11-01T05:59:03.118Z,100327.47
2022-11-01T05:59:34.986Z,100332.25
2022-11-01T06:00:07.400Z,100326.97
2022-11-01T06:00:43.817Z,100324.13
2022-11-01T06:01:17.940Z,100331.41
2022-11-01T06:01:50.015Z,100323.78
2022-11-01T06:02:21.984Z,100332.25
2022-11-01T06:02:53.871Z,100336.66
2022-11-01T06:03:26.095Z,100327.81
2022-11-01T06:04:01.908Z,100329.25
2022-11-01T06:04:33.761Z,100333.50
2022-11-01T06:05:05.957Z,100331.41
2022-11-01T06:05:38.777Z,100331.78
2022-11-01T06:06:11.864Z,100329.56
2022-11-01T06:06:44.209Z,100331.75
2022-11-01T06:07:16.610Z,100332.97
2022-11-01T06:07:48.481Z,100330.56
2022-11-01T06:08:20.918Z,100333.16
2022-11-01T06:08:52.784Z,100338.19
2022-11-01T06:09:24.622Z,100335.00
2022-11-01T06:09:56.477Z,100337.66
2022-11-01T06:10:28.745Z,100339.53
2022-11-01T06:11:05.330Z,100340.53
2022-11-01T06:11:41.484Z,100336.66
2022-11-01T06:12:14.007Z,100336.47
2022-11-01T06:12:45.940Z,100339.09
2022-11-01T06:13:17.789Z,100340.94
2022-11-01T06:13:56.600Z,100341.22
2022-11-01T06:14:28.482Z,100336.22
2022-11-01T06:15:00.410Z,100345.63
2022-11-01T06:15:34.387Z,100341.59
2022-11-01T06:16:09.219Z,100347.28
2022-11-01T06:16:41.039Z,100347.62
2022-11-01T06:17:13.586Z,100348.22
2022-11-01T06:17:45.469Z,100349.63
2022-11-01T06:18:17.312Z,100348.47
2022-11-01T06:18:49.600Z,100349.25
2022-11-01T06:19:21.481Z,100347.28
2022-11-01T06:19:53.391Z,100344.22
2022-11-01T06:20:26.555Z,100349.84
2022-11-01T06:20:59.379Z,100345.00
2022-11-01T06:21:31.256Z,100346.22
2022-11-01T06:22:03.089Z,100343.31
2022-11-01T06:22:36.359Z,100344.94
2022-11-01T06:23:10.691Z,100346.56
2022-11-01T06:23:47.019Z,100343.38
2022-11-01T06:24:18.872Z,100338.00
2022-11-01T06:24:50.713Z,100345.63
2022-11-01T06:25:23.077Z,100346.03
2022-11-01T06:26:02.813Z,100344.84
2022-11-01T06:26:34.739Z,100337.41
2022-11-01T06:27:11.503Z,100347.31
2022-11-01T06:27:44.739Z,100349.13
2022-11-01T06:28:16.774Z,100348.91
2022-11-01T06:28:48.620Z,100345.28
2022-11-01T06:29:20.515Z,100345.25
2022-11-01T06:29:52.340Z,100343.47
2022-11-01T06:30:24.197Z,100354.28
2022-11-01T06:30:56.176Z,100348.81
2022-11-01T06:31:28.300Z,100347.62
2022-11-01T06:32:02.312Z,100346.88
2022-11-01T06:32:34.139Z,100341.84
2022-11-01T06:33:09.571Z,100357.06
2022-11-01T06:33:41.482Z,100351.66
2022-11-01T06:34:13.286Z,100345.19
2022-11-01T06:34:45.201Z,100345.78
2022-11-01T06:35:17.420Z,100348.81
2022-11-01T06:35:49.260Z,100348.28
2022-11-01T06:36:22.376Z,100350.50
2022-11-01T06:36:54.296Z,100348.50
2022-11-01T06:37:26.122Z,100348.06
2022-11-01T06:38:07.548Z,100349.72